Terminal Aerodrome Forecast
Issued by NWS Portland, OR

Home | Current Version | Previous Version | Text Only | Print | Product List | Glossary On
Versions: 1 2 3 4 5 6 7 8 9 10 11 12 13 14 15 16 17 18 19 20 21 22 23 24 25 26 27 28 29 30 31 32 33 34 35 36 37 38
000
FTUS46 KPQR 192320
TAFAST
TAF
KAST 192320Z 2000/2024 20012G20KT P6SM -SHRA SCT020 BKN040
     FM200300 18009KT P6SM VCSH SCT025 BKN050
     FM200600 10009KT P6SM BKN050
     FM201200 10012KT P6SM -RA OVC060
     FM202000 12012KT P6SM -RA OVC030=

USA.gov is the U.S. government's official web portal to all federal, state and local government web resources and services.